sensor_id;sensor_type;location;lat;lon;timestamp;pressure;altitude;pressure_sealevel;temperature;humidity
61039;BME280;46919;45.816;3.104;2023-06-10T00:02:20;97294.47;;;17.12;100.00
61039;BME280;46919;45.816;3.104;2023-06-10T00:04:45;97294.47;;;17.12;100.00
61039;BME280;46919;45.816;3.104;2023-06-10T00:07:11;97298.31;;;17.11;100.00
61039;BME280;46919;45.816;3.104;2023-06-10T00:09:37;97298.06;;;17.08;100.00
61039;BME280;46919;45.816;3.104;2023-06-10T00:12:07;97296.13;;;17.13;100.00
61039;BME280;46919;45.816;3.104;2023-06-10T00:14:37;97301.78;;;17.27;100.00
61039;BME280;46919;45.816;3.104;2023-06-10T00:17:03;97302.59;;;17.28;100.00
61039;BME280;46919;45.816;3.104;2023-06-10T00:19:29;97306.72;;;17.20;100.00
61039;BME280;46919;45.816;3.104;2023-06-10T00:21:58;97306.22;;;17.13;100.00
61039;BME280;46919;45.816;3.104;2023-06-10T00:24:24;97306.47;;;17.16;100.00
61039;BME280;46919;45.816;3.104;2023-06-10T00:26:49;97302.16;;;17.10;100.00
61039;BME280;46919;45.816;3.104;2023-06-10T00:29:15;97305.69;;;17.11;100.00
61039;BME280;46919;45.816;3.104;2023-06-10T00:31:40;97302.38;;;17.14;100.00
61039;BME280;46919;45.816;3.104;2023-06-10T00:34:07;97294.00;;;17.05;100.00
61039;BME280;46919;45.816;3.104;2023-06-10T00:36:32;97303.00;;;17.06;100.00
61039;BME280;46919;45.816;3.104;2023-06-10T00:38:58;97296.72;;;17.05;100.00
61039;BME280;46919;45.816;3.104;2023-06-10T00:41:23;97293.44;;;17.03;100.00
61039;BME280;46919;45.816;3.104;2023-06-10T00:43:48;97296.72;;;17.00;100.00
61039;BME280;46919;45.816;3.104;2023-06-10T00:46:14;97292.63;;;17.02;100.00
61039;BME280;46919;45.816;3.104;2023-06-10T00:48:42;97296.16;;;17.03;100.00
61039;BME280;46919;45.816;3.104;2023-06-10T00:51:08;97300.03;;;16.92;100.00
61039;BME280;46919;45.816;3.104;2023-06-10T00:53:36;97295.19;;;16.78;100.00
61039;BME280;46919;45.816;3.104;2023-06-10T00:56:02;97297.66;;;16.70;100.00
61039;BME280;46919;45.816;3.104;2023-06-10T00:58:28;97297.94;;;16.73;100.00
61039;BME280;46919;45.816;3.104;2023-06-10T01:00:54;97295.19;;;16.68;100.00
61039;BME280;46919;45.816;3.104;2023-06-10T01:03:19;97300.16;;;16.61;100.00
61039;BME280;46919;45.816;3.104;2023-06-10T01:05:53;97296.88;;;16.59;100.00
61039;BME280;46919;45.816;3.104;2023-06-10T01:08:38;97300.69;;;16.63;100.00
61039;BME280;46919;45.816;3.104;2023-06-10T01:11:08;97298.50;;;16.60;100.00
61039;BME280;46919;45.816;3.104;2023-06-10T01:13:40;97303.47;;;16.53;100.00
61039;BME280;46919;45.816;3.104;2023-06-10T01:16:06;97302.94;;;16.45;100.00
61039;BME280;46919;45.816;3.104;2023-06-10T01:18:32;97302.38;;;16.38;100.00
61039;BME280;46919;45.816;3.104;2023-06-10T01:20:58;97304.31;;;16.33;100.00
61039;BME280;46919;45.816;3.104;2023-06-10T01:23:23;97306.22;;;16.27;100.00
61039;BME280;46919;45.816;3.104;2023-06-10T01:25:57;97313.88;;;16.25;100.00
61039;BME280;46919;45.816;3.104;2023-06-10T01:28:35;97310.63;;;16.23;100.00
61039;BME280;46919;45.816;3.104;2023-06-10T01:33:36;97310.63;;;16.12;100.00
61039;BME280;46919;45.816;3.104;2023-06-10T01:36:04;97312.56;;;16.07;100.00
61039;BME280;46919;45.816;3.104;2023-06-10T01:38:34;97308.72;;;16.08;100.00
61039;BME280;46919;45.816;3.104;2023-06-10T01:41:02;97304.09;;;16.08;100.00
61039;BME280;46919;45.816;3.104;2023-06-10T01:43:28;97302.19;;;15.99;100.00
61039;BME280;46919;45.816;3.104;2023-06-10T01:45:53;97311.22;;;15.94;100.00
61039;BME280;46919;45.816;3.104;2023-06-10T01:48:19;97310.13;;;15.90;100.00
61039;BME280;46919;45.816;3.104;2023-06-10T01:50:45;97316.94;;;15.82;100.00
61039;BME280;46919;45.816;3.104;2023-06-10T01:53:10;97313.09;;;15.93;100.00
61039;BME280;46919;45.816;3.104;2023-06-10T01:55:36;97321.28;;;16.04;100.00
61039;BME280;46919;45.816;3.104;2023-06-10T01:58:01;97312.00;;;16.00;100.00
61039;BME280;46919;45.816;3.104;2023-06-10T02:00:26;97309.03;;;15.91;100.00
61039;BME280;46919;45.816;3.104;2023-06-10T02:02:52;97314.47;;;15.86;100.00
61039;BME280;46919;45.816;3.104;2023-06-10T02:05:18;97322.38;;;15.92;100.00
61039;BME280;46919;45.816;3.104;2023-06-10T02:07:44;97321.53;;;15.92;100.00
61039;BME280;46919;45.816;3.104;2023-06-10T02:10:09;97324.00;;;15.88;100.00
61039;BME280;46919;45.816;3.104;2023-06-10T02:12:35;97319.91;;;15.86;100.00
61039;BME280;46919;45.816;3.104;2023-06-10T02:15:00;97324.81;;;15.89;100.00
61039;BME280;46919;45.816;3.104;2023-06-10T02:17:25;97335.19;;;15.97;100.00
61039;BME280;46919;45.816;3.104;2023-06-10T02:19:52;97340.63;;;16.07;100.00
61039;BME280;46919;45.816;3.104;2023-06-10T02:22:22;97342.81;;;16.10;100.00
61039;BME280;46919;45.816;3.104;2023-06-10T02:24:48;97343.91;;;15.99;100.00
61039;BME280;46919;45.816;3.104;2023-06-10T02:27:17;97333.25;;;16.03;100.00
61039;BME280;46919;45.816;3.104;2023-06-10T02:29:43;97336.25;;;16.06;100.00
61039;BME280;46919;45.816;3.104;2023-06-10T02:32:08;97345.00;;;15.93;100.00
61039;BME280;46919;45.816;3.104;2023-06-10T02:34:34;97344.97;;;15.83;100.00
61039;BME280;46919;45.816;3.104;2023-06-10T02:37:00;97351.53;;;15.77;100.00
61039;BME280;46919;45.816;3.104;2023-06-10T02:39:25;97351.75;;;15.70;100.00
61039;BME280;46919;45.816;3.104;2023-06-10T02:41:51;97340.06;;;15.64;100.00
61039;BME280;46919;45.816;3.104;2023-06-10T02:44:18;97347.13;;;15.60;100.00
61039;BME280;46919;45.816;3.104;2023-06-10T02:46:43;97349.84;;;15.60;100.00
61039;BME280;46919;45.816;3.104;2023-06-10T02:49:09;97357.47;;;15.63;100.00
61039;BME280;46919;45.816;3.104;2023-06-10T02:51:34;97359.13;;;15.64;100.00
61039;BME280;46919;45.816;3.104;2023-06-10T02:54:01;97347.97;;;15.66;100.00
61039;BME280;46919;45.816;3.104;2023-06-10T02:56:26;97347.94;;;15.71;100.00
61039;BME280;46919;45.816;3.104;2023-06-10T02:58:52;97352.59;;;15.70;100.00
61039;BME280;46919;45.816;3.104;2023-06-10T03:01:18;97361.91;;;15.80;100.00
61039;BME280;46919;45.816;3.104;2023-06-10T03:03:44;97359.97;;;15.80;100.00
61039;BME280;46919;45.816;3.104;2023-06-10T03:06:10;97370.59;;;15.87;100.00
61039;BME280;46919;45.816;3.104;2023-06-10T03:08:36;97362.44;;;15.87;100.00
61039;BME280;46919;45.816;3.104;2023-06-10T03:11:03;97373.34;;;15.87;100.00
61039;BME280;46919;45.816;3.104;2023-06-10T03:13:28;97370.06;;;15.85;100.00
61039;BME280;46919;45.816;3.104;2023-06-10T03:15:54;97366.81;;;15.88;100.00
61039;BME280;46919;45.816;3.104;2023-06-10T03:18:19;97365.16;;;15.92;100.00
61039;BME280;46919;45.816;3.104;2023-06-10T03:20:45;97362.16;;;15.93;100.00
61039;BME280;46919;45.816;3.104;2023-06-10T03:23:11;97370.06;;;15.95;100.00
61039;BME280;46919;45.816;3.104;2023-06-10T03:25:36;97367.59;;;15.93;100.00
61039;BME280;46919;45.816;3.104;2023-06-10T03:28:02;97375.25;;;15.97;100.00
61039;BME280;46919;45.816;3.104;2023-06-10T03:30:28;97370.63;;;16.02;100.00
61039;BME280;46919;45.816;3.104;2023-06-10T03:32:53;97379.59;;;16.08;100.00
61039;BME280;46919;45.816;3.104;2023-06-10T03:35:19;97383.13;;;16.03;100.00
61039;BME280;46919;45.816;3.104;2023-06-10T03:37:44;97380.41;;;16.03;100.00
61039;BME280;46919;45.816;3.104;2023-06-10T03:40:10;97377.44;;;15.94;100.00
61039;BME280;46919;45.816;3.104;2023-06-10T03:42:36;97376.06;;;15.92;100.00
61039;BME280;46919;45.816;3.104;2023-06-10T03:45:03;97371.13;;;15.89;100.00
61039;BME280;46919;45.816;3.104;2023-06-10T03:47:36;97371.69;;;15.86;100.00
61039;BME280;46919;45.816;3.104;2023-06-10T03:50:02;97377.69;;;15.83;100.00
61039;BME280;46919;45.816;3.104;2023-06-10T03:52:28;97378.50;;;15.93;100.00
61039;BME280;46919;45.816;3.104;2023-06-10T03:54:54;97379.88;;;15.96;100.00
61039;BME280;46919;45.816;3.104;2023-06-10T03:57:19;97379.03;;;15.90;100.00
61039;BME280;46919;45.816;3.104;2023-06-10T03:59:45;97380.97;;;15.95;100.00
61039;BME280;46919;45.816;3.104;2023-06-10T04:02:10;97378.25;;;16.05;100.00
61039;BME280;46919;45.816;3.104;2023-06-10T04:04:36;97376.06;;;16.02;100.00
61039;BME280;46919;45.816;3.104;2023-06-10T04:07:03;97383.16;;;15.98;100.00
61039;BME280;46919;45.816;3.104;2023-06-10T04:09:28;97373.88;;;16.04;100.00
61039;BME280;46919;45.816;3.104;2023-06-10T04:11:54;97383.69;;;16.10;100.00
61039;BME280;46919;45.816;3.104;2023-06-10T04:14:19;97379.31;;;16.04;100.00
61039;BME280;46919;45.816;3.104;2023-06-10T04:16:44;97381.50;;;16.07;100.00
61039;BME280;46919;45.816;3.104;2023-06-10T04:19:10;97376.34;;;16.16;100.00
61039;BME280;46919;45.816;3.104;2023-06-10T04:21:35;97385.06;;;16.13;100.00
61039;BME280;46919;45.816;3.104;2023-06-10T04:24:01;97385.06;;;16.13;100.00
61039;BME280;46919;45.816;3.104;2023-06-10T04:26:27;97381.50;;;16.28;100.00
61039;BME280;46919;45.816;3.104;2023-06-10T04:28:53;97385.31;;;16.42;100.00
61039;BME280;46919;45.816;3.104;2023-06-10T04:31:18;97384.75;;;16.40;100.00
61039;BME280;46919;45.816;3.104;2023-06-10T04:33:44;97389.66;;;16.38;100.00
61039;BME280;46919;45.816;3.104;2023-06-10T04:36:10;97387.78;;;16.39;100.00
61039;BME280;46919;45.816;3.104;2023-06-10T04:38:36;97390.22;;;16.35;100.00
61039;BME280;46919;45.816;3.104;2023-06-10T04:41:01;97391.31;;;16.39;100.00
61039;BME280;46919;45.816;3.104;2023-06-10T04:43:27;97396.47;;;16.46;100.00
61039;BME280;46919;45.816;3.104;2023-06-10T04:45:54;97407.13;;;16.42;100.00
61039;BME280;46919;45.816;3.104;2023-06-10T04:48:19;97410.13;;;16.41;100.00
61039;BME280;46919;45.816;3.104;2023-06-10T04:50:45;97401.66;;;16.42;100.00
61039;BME280;46919;45.816;3.104;2023-06-10T04:53:10;97404.94;;;16.39;100.00
61039;BME280;46919;45.816;3.104;2023-06-10T04:55:36;97405.75;;;16.35;100.00
61039;BME280;46919;45.816;3.104;2023-06-10T04:58:01;97401.13;;;16.35;100.00
61039;BME280;46919;45.816;3.104;2023-06-10T05:00:27;97406.03;;;16.38;100.00
61039;BME280;46919;45.816;3.104;2023-06-10T05:02:52;97403.31;;;16.43;100.00
61039;BME280;46919;45.816;3.104;2023-06-10T05:05:18;97409.03;;;16.47;100.00
61039;BME280;46919;45.816;3.104;2023-06-10T05:07:44;97403.81;;;16.56;100.00
61039;BME280;46919;45.816;3.104;2023-06-10T05:10:10;97403.81;;;16.66;100.00
61039;BME280;46919;45.816;3.104;2023-06-10T05:12:35;97410.34;;;16.65;100.00
61039;BME280;46919;45.816;3.104;2023-06-10T05:15:00;97406.53;;;16.66;100.00
61039;BME280;46919;45.816;3.104;2023-06-10T05:17:26;97402.44;;;16.74;100.00
61039;BME280;46919;45.816;3.104;2023-06-10T05:19:52;97403.25;;;16.74;100.00
61039;BME280;46919;45.816;3.104;2023-06-10T05:22:18;97396.72;;;16.70;100.00
61039;BME280;46919;45.816;3.104;2023-06-10T05:24:44;97399.44;;;16.65;100.00
61039;BME280;46919;45.816;3.104;2023-06-10T05:27:10;97404.88;;;16.65;100.00
61039;BME280;46919;45.816;3.104;2023-06-10T05:29:35;97415.53;;;16.77;100.00
61039;BME280;46919;45.816;3.104;2023-06-10T05:32:01;97402.16;;;16.86;100.00
61039;BME280;46919;45.816;3.104;2023-06-10T05:34:29;97406.25;;;16.88;100.00
61039;BME280;46919;45.816;3.104;2023-06-10T05:36:54;97408.97;;;16.83;100.00
61039;BME280;46919;45.816;3.104;2023-06-10T05:39:20;97421.78;;;16.82;100.00
61039;BME280;46919;45.816;3.104;2023-06-10T05:41:46;97421.78;;;16.82;100.00
61039;BME280;46919;45.816;3.104;2023-06-10T05:44:11;97414.72;;;16.87;100.00
61039;BME280;46919;45.816;3.104;2023-06-10T05:46:36;97424.25;;;16.94;100.00
61039;BME280;46919;45.816;3.104;2023-06-10T05:49:02;97432.72;;;16.93;100.00
61039;BME280;46919;45.816;3.104;2023-06-10T05:51:28;97426.16;;;16.89;100.00
61039;BME280;46919;45.816;3.104;2023-06-10T05:53:54;97424.50;;;16.98;100.00
61039;BME280;46919;45.816;3.104;2023-06-10T05:56:20;97419.28;;;17.07;100.00
61039;BME280;46919;45.816;3.104;2023-06-10T05:58:47;97424.97;;;17.15;100.00
61039;BME280;46919;45.816;3.104;2023-06-10T06:01:13;97434.22;;;17.25;100.00
61039;BME280;46919;45.816;3.104;2023-06-10T06:03:38;97433.44;;;17.24;100.00
61039;BME280;46919;45.816;3.104;2023-06-10T06:06:04;97427.94;;;17.29;100.00
61039;BME280;46919;45.816;3.104;2023-06-10T06:08:29;97432.56;;;17.34;100.00
61039;BME280;46919;45.816;3.104;2023-06-10T06:10:55;97429.00;;;17.38;100.00
61039;BME280;46919;45.816;3.104;2023-06-10T06:13:20;97428.69;;;17.45;100.00
61039;BME280;46919;45.816;3.104;2023-06-10T06:15:46;97437.13;;;17.49;100.00
61039;BME280;46919;45.816;3.104;2023-06-10T06:18:11;97436.88;;;17.45;100.00
61039;BME280;46919;45.816;3.104;2023-06-10T06:20:36;97435.78;;;17.46;100.00
61039;BME280;46919;45.816;3.104;2023-06-10T06:23:02;97436.28;;;17.53;100.00
61039;BME280;46919;45.816;3.104;2023-06-10T06:25:27;97434.63;;;17.52;100.00
61039;BME280;46919;45.816;3.104;2023-06-10T06:27:53;97434.91;;;17.56;100.00
61039;BME280;46919;45.816;3.104;2023-06-10T06:30:18;97443.91;;;17.56;100.00
61039;BME280;46919;45.816;3.104;2023-06-10T06:32:43;97442.25;;;17.66;100.00
61039;BME280;46919;45.816;3.104;2023-06-10T06:35:09;97446.56;;;17.72;100.00
61039;BME280;46919;45.816;3.104;2023-06-10T06:37:35;97438.88;;;17.79;100.00
61039;BME280;46919;45.816;3.104;2023-06-10T06:40:01;97443.78;;;17.82;100.00
61039;BME280;46919;45.816;3.104;2023-06-10T06:42:27;97447.06;;;17.84;100.00
61039;BME280;46919;45.816;3.104;2023-06-10T06:44:52;97447.63;;;17.76;100.00
61039;BME280;46919;45.816;3.104;2023-06-10T06:47:17;97445.44;;;17.78;100.00
61039;BME280;46919;45.816;3.104;2023-06-10T06:49:46;97449.50;;;17.91;100.00
61039;BME280;46919;45.816;3.104;2023-06-10T06:52:12;97447.00;;;17.95;100.00
61039;BME280;46919;45.816;3.104;2023-06-10T06:54:37;97450.28;;;17.97;100.00
61039;BME280;46919;45.816;3.104;2023-06-10T06:57:03;97451.63;;;17.99;100.00
61039;BME280;46919;45.816;3.104;2023-06-10T06:59:28;97447.47;;;18.07;100.00
61039;BME280;46919;45.816;3.104;2023-06-10T07:01:53;97445.50;;;18.18;100.00
61039;BME280;46919;45.816;3.104;2023-06-10T07:04:20;97444.03;;;18.31;100.00
61039;BME280;46919;45.816;3.104;2023-06-10T07:06:47;97442.63;;;18.33;100.00
61039;BME280;46919;45.816;3.104;2023-06-10T07:09:12;97451.16;;;18.26;100.00
61039;BME280;46919;45.816;3.104;2023-06-10T07:11:38;97444.59;;;18.27;100.00
61039;BME280;46919;45.816;3.104;2023-06-10T07:14:04;97439.59;;;18.35;100.00
61039;BME280;46919;45.816;3.104;2023-06-10T07:16:29;97441.81;;;18.33;100.00
61039;BME280;46919;45.816;3.104;2023-06-10T07:18:54;97444.88;;;18.26;100.00
61039;BME280;46919;45.816;3.104;2023-06-10T07:21:20;97444.81;;;18.31;100.00
61039;BME280;46919;45.816;3.104;2023-06-10T07:23:45;97442.31;;;18.35;100.00
61039;BME280;46919;45.816;3.104;2023-06-10T07:26:11;97445.00;;;18.45;100.00
61039;BME280;46919;45.816;3.104;2023-06-10T07:28:39;97453.66;;;18.57;100.00
61039;BME280;46919;45.816;3.104;2023-06-10T07:31:04;97450.00;;;18.67;100.00
61039;BME280;46919;45.816;3.104;2023-06-10T07:33:30;97448.88;;;18.68;100.00
61039;BME280;46919;45.816;3.104;2023-06-10T07:35:55;97454.03;;;18.75;100.00
61039;BME280;46919;45.816;3.104;2023-06-10T07:38:20;97457.88;;;18.74;100.00
61039;BME280;46919;45.816;3.104;2023-06-10T07:40:46;97457.56;;;18.75;100.00
61039;BME280;46919;45.816;3.104;2023-06-10T07:43:12;97459.44;;;18.80;100.00
61039;BME280;46919;45.816;3.104;2023-06-10T07:45:39;97461.13;;;18.76;100.00
61039;BME280;46919;45.816;3.104;2023-06-10T07:48:05;97460.84;;;18.77;100.00
61039;BME280;46919;45.816;3.104;2023-06-10T07:50:30;97468.19;;;18.82;100.00
61039;BME280;46919;45.816;3.104;2023-06-10T07:52:56;97464.94;;;18.80;100.00
61039;BME280;46919;45.816;3.104;2023-06-10T07:55:21;97470.28;;;18.95;100.00
61039;BME280;46919;45.816;3.104;2023-06-10T07:57:47;97462.00;;;19.00;100.00
61039;BME280;46919;45.816;3.104;2023-06-10T08:00:12;97474.06;;;18.99;100.00
61039;BME280;46919;45.816;3.104;2023-06-10T08:02:38;97465.84;;;18.99;100.00
61039;BME280;46919;45.816;3.104;2023-06-10T08:05:04;97469.59;;;19.09;100.00
61039;BME280;46919;45.816;3.104;2023-06-10T08:07:29;97473.44;;;19.08;100.00
61039;BME280;46919;45.816;3.104;2023-06-10T08:09:56;97473.09;;;19.14;100.00
61039;BME280;46919;45.816;3.104;2023-06-10T08:12:21;97473.97;;;19.10;100.00
61039;BME280;46919;45.816;3.104;2023-06-10T08:14:46;97475.00;;;19.14;100.00
61039;BME280;46919;45.816;3.104;2023-06-10T08:17:12;97476.22;;;19.27;100.00
61039;BME280;46919;45.816;3.104;2023-06-10T08:19:37;97468.19;;;19.35;100.00
61039;BME280;46919;45.816;3.104;2023-06-10T08:22:03;97476.13;;;19.37;100.00
61039;BME280;46919;45.816;3.104;2023-06-10T08:24:29;97468.34;;;19.44;100.00
61039;BME280;46919;45.816;3.104;2023-06-10T08:26:54;97469.03;;;19.55;100.00
61039;BME280;46919;45.816;3.104;2023-06-10T08:29:21;97470.59;;;19.61;100.00
61039;BME280;46919;45.816;3.104;2023-06-10T08:31:46;97471.31;;;19.72;100.00
61039;BME280;46919;45.816;3.104;2023-06-10T08:34:12;97456.91;;;19.61;100.00
61039;BME280;46919;45.816;3.104;2023-06-10T08:36:37;97459.34;;;19.63;100.00
61039;BME280;46919;45.816;3.104;2023-06-10T08:39:03;97460.91;;;19.69;100.00
61039;BME280;46919;45.816;3.104;2023-06-10T08:41:28;97459.22;;;19.73;100.00
61039;BME280;46919;45.816;3.104;2023-06-10T08:44:22;97462.44;;;19.99;100.00
61039;BME280;46919;45.816;3.104;2023-06-10T08:46:53;97455.97;;;20.28;100.00
61039;BME280;46919;45.816;3.104;2023-06-10T08:49:20;97458.28;;;20.54;100.00
61039;BME280;46919;45.816;3.104;2023-06-10T08:51:55;97453.72;;;20.82;100.00
61039;BME280;46919;45.816;3.104;2023-06-10T08:54:25;97456.63;;;21.05;100.00
61039;BME280;46919;45.816;3.104;2023-06-10T08:56:54;97468.59;;;20.95;100.00
61039;BME280;46919;45.816;3.104;2023-06-10T08:59:21;97465.47;;;21.02;100.00
61039;BME280;46919;45.816;3.104;2023-06-10T09:01:47;97467.47;;;20.96;100.00
61039;BME280;46919;45.816;3.104;2023-06-10T09:04:13;97461.50;;;20.94;100.00
61039;BME280;46919;45.816;3.104;2023-06-10T09:06:39;97455.16;;;20.79;100.00
61039;BME280;46919;45.816;3.104;2023-06-10T09:09:06;97460.13;;;20.77;100.00
61039;BME280;46919;45.816;3.104;2023-06-10T09:11:32;97460.03;;;20.83;100.00
61039;BME280;46919;45.816;3.104;2023-06-10T09:13:58;97455.06;;;20.85;100.00
61039;BME280;46919;45.816;3.104;2023-06-10T09:16:24;97460.34;;;20.95;100.00
61039;BME280;46919;45.816;3.104;2023-06-10T09:18:50;97462.50;;;20.98;100.00
61039;BME280;46919;45.816;3.104;2023-06-10T09:21:22;97464.03;;;21.04;100.00
61039;BME280;46919;45.816;3.104;2023-06-10T09:23:47;97461.91;;;21.15;100.00
61039;BME280;46919;45.816;3.104;2023-06-10T09:26:13;97464.97;;;21.27;100.00
61039;BME280;46919;45.816;3.104;2023-06-10T09:28:38;97466.69;;;21.37;100.00
61039;BME280;46919;45.816;3.104;2023-06-10T09:31:06;97463.97;;;21.51;100.00
61039;BME280;46919;45.816;3.104;2023-06-10T09:33:32;97463.03;;;21.69;100.00
61039;BME280;46919;45.816;3.104;2023-06-10T09:36:01;97462.94;;;22.11;100.00
61039;BME280;46919;45.816;3.104;2023-06-10T09:38:31;97459.81;;;22.26;100.00
61039;BME280;46919;45.816;3.104;2023-06-10T09:40:59;97458.28;;;22.34;100.00
61039;BME280;46919;45.816;3.104;2023-06-10T09:43:43;97457.31;;;22.30;100.00
61039;BME280;46919;45.816;3.104;2023-06-10T09:46:16;97459.13;;;22.35;100.00
61039;BME280;46919;45.816;3.104;2023-06-10T09:48:44;97455.72;;;22.60;100.00
61039;BME280;46919;45.816;3.104;2023-06-10T09:51:10;97459.44;;;22.87;100.00
61039;BME280;46919;45.816;3.104;2023-06-10T09:53:36;97457.53;;;23.28;98.40
61039;BME280;46919;45.816;3.104;2023-06-10T09:56:02;97451.78;;;23.47;94.62
61039;BME280;46919;45.816;3.104;2023-06-10T09:58:38;97442.25;;;23.70;94.07
61039;BME280;46919;45.816;3.104;2023-06-10T10:01:09;97446.69;;;23.98;94.46
61039;BME280;46919;45.816;3.104;2023-06-10T10:03:45;97438.84;;;23.74;97.72
61039;BME280;46919;45.816;3.104;2023-06-10T10:06:11;97450.09;;;23.86;93.89
61039;BME280;46919;45.816;3.104;2023-06-10T10:08:37;97431.25;;;23.79;89.65
61039;BME280;46919;45.816;3.104;2023-06-10T10:11:02;97447.09;;;23.56;88.16
61039;BME280;46919;45.816;3.104;2023-06-10T10:13:28;97450.00;;;23.51;93.26
61039;BME280;46919;45.816;3.104;2023-06-10T10:16:00;97446.88;;;23.35;92.52
61039;BME280;46919;45.816;3.104;2023-06-10T10:18:29;97447.03;;;23.39;91.40
61039;BME280;46919;45.816;3.104;2023-06-10T10:20:57;97433.50;;;23.77;89.60
61039;BME280;46919;45.816;3.104;2023-06-10T10:23:31;97432.91;;;23.89;91.92
61039;BME280;46919;45.816;3.104;2023-06-10T10:26:00;97436.72;;;23.70;90.73
61039;BME280;46919;45.816;3.104;2023-06-10T10:28:35;97432.13;;;23.40;93.15
61039;BME280;46919;45.816;3.104;2023-06-10T10:31:08;97438.22;;;23.19;95.22
61039;BME280;46919;45.816;3.104;2023-06-10T10:33:51;97432.63;;;23.02;98.93
61039;BME280;46919;45.816;3.104;2023-06-10T10:36:20;97429.97;;;22.96;96.53
61039;BME280;46919;45.816;3.104;2023-06-10T10:38:45;97426.38;;;22.87;97.55
61039;BME280;46919;45.816;3.104;2023-06-10T10:41:13;97432.00;;;22.82;99.66
61039;BME280;46919;45.816;3.104;2023-06-10T10:43:39;97423.41;;;22.75;96.30
61039;BME280;46919;45.816;3.104;2023-06-10T10:46:13;97421.31;;;22.80;91.68
61039;BME280;46919;45.816;3.104;2023-06-10T10:48:39;97417.44;;;22.82;90.79
61039;BME280;46919;45.816;3.104;2023-06-10T10:51:07;97414.75;;;22.90;88.92
61039;BME280;46919;45.816;3.104;2023-06-10T10:53:32;97414.84;;;23.08;90.88
61039;BME280;46919;45.816;3.104;2023-06-10T10:58:25;97412.53;;;23.50;90.71
61039;BME280;46919;45.816;3.104;2023-06-10T11:00:51;97406.72;;;23.60;92.42
61039;BME280;46919;45.816;3.104;2023-06-10T11:03:17;97408.63;;;23.51;91.78
61039;BME280;46919;45.816;3.104;2023-06-10T11:05:47;97402.97;;;23.56;90.11
61039;BME280;46919;45.816;3.104;2023-06-10T11:16:39;97381.88;;;23.43;86.11
61039;BME280;46919;45.816;3.104;2023-06-10T11:19:05;97384.31;;;23.70;84.67
61039;BME280;46919;45.816;3.104;2023-06-10T11:21:30;97383.06;;;23.94;82.26
61039;BME280;46919;45.816;3.104;2023-06-10T11:23:58;97380.09;;;24.34;82.64
61039;BME280;46919;45.816;3.104;2023-06-10T11:31:28;97381.16;;;25.16;80.68
61039;BME280;46919;45.816;3.104;2023-06-10T11:33:56;97380.34;;;25.15;78.39
61039;BME280;46919;45.816;3.104;2023-06-10T11:36:23;97389.34;;;25.03;76.97
61039;BME280;46919;45.816;3.104;2023-06-10T11:38:50;97381.09;;;24.94;75.30
61039;BME280;46919;45.816;3.104;2023-06-10T11:41:18;97386.66;;;24.86;77.47
61039;BME280;46919;45.816;3.104;2023-06-10T11:43:44;97383.44;;;24.75;78.18
61039;BME280;46919;45.816;3.104;2023-06-10T11:46:14;97382.69;;;24.57;77.34
61039;BME280;46919;45.816;3.104;2023-06-10T11:48:48;97377.66;;;24.41;75.31
61039;BME280;46919;45.816;3.104;2023-06-10T11:51:14;97367.13;;;24.35;76.95
61039;BME280;46919;45.816;3.104;2023-06-10T11:53:39;97363.88;;;24.24;78.99
61039;BME280;46919;45.816;3.104;2023-06-10T11:56:05;97359.19;;;24.16;78.94
61039;BME280;46919;45.816;3.104;2023-06-10T11:58:30;97358.53;;;24.19;79.72
61039;BME280;46919;45.816;3.104;2023-06-10T12:00:56;97353.34;;;24.09;78.24
61039;BME280;46919;45.816;3.104;2023-06-10T12:03:23;97358.06;;;24.08;77.21
61039;BME280;46919;45.816;3.104;2023-06-10T12:05:58;97355.28;;;24.17;75.13
61039;BME280;46919;45.816;3.104;2023-06-10T12:08:24;97367.78;;;24.05;74.72
61039;BME280;46919;45.816;3.104;2023-06-10T12:10:50;97380.91;;;23.74;78.11
61039;BME280;46919;45.816;3.104;2023-06-10T12:13:16;97403.91;;;23.51;79.59
61039;BME280;46919;45.816;3.104;2023-06-10T12:15:45;97407.63;;;22.98;78.57
61039;BME280;46919;45.816;3.104;2023-06-10T12:18:22;97406.91;;;22.30;80.56
61039;BME280;46919;45.816;3.104;2023-06-10T12:20:48;97417.69;;;21.81;81.56
61039;BME280;46919;45.816;3.104;2023-06-10T12:23:16;97430.56;;;21.58;83.37
61039;BME280;46919;45.816;3.104;2023-06-10T12:25:55;97433.22;;;21.35;84.52
61039;BME280;46919;45.816;3.104;2023-06-10T12:28:22;97429.94;;;21.05;85.58
61039;BME280;46919;45.816;3.104;2023-06-10T12:30:48;97437.84;;;20.65;88.12
61039;BME280;46919;45.816;3.104;2023-06-10T12:33:17;97472.34;;;20.33;96.56
61039;BME280;46919;45.816;3.104;2023-06-10T12:35:50;97482.34;;;19.67;100.00
61039;BME280;46919;45.816;3.104;2023-06-10T12:38:25;97487.19;;;18.39;100.00
61039;BME280;46919;45.816;3.104;2023-06-10T12:40:54;97485.69;;;17.67;100.00
61039;BME280;46919;45.816;3.104;2023-06-10T12:43:26;97488.75;;;17.50;100.00
61039;BME280;46919;45.816;3.104;2023-06-10T12:45:51;97489.59;;;17.46;100.00
61039;BME280;46919;45.816;3.104;2023-06-10T12:48:21;97488.16;;;17.59;100.00
61039;BME280;46919;45.816;3.104;2023-06-10T12:50:54;97486.78;;;17.66;100.00
61039;BME280;46919;45.816;3.104;2023-06-10T12:53:21;97475.31;;;17.64;100.00
61039;BME280;46919;45.816;3.104;2023-06-10T12:55:48;97465.75;;;17.62;100.00
61039;BME280;46919;45.816;3.104;2023-06-10T12:58:13;97463.00;;;17.62;100.00
61039;BME280;46919;45.816;3.104;2023-06-10T13:00:39;97463.50;;;17.74;100.00
61039;BME280;46919;45.816;3.104;2023-06-10T13:03:06;97473.91;;;17.72;100.00
61039;BME280;46919;45.816;3.104;2023-06-10T13:05:32;97464.63;;;17.68;100.00
61039;BME280;46919;45.816;3.104;2023-06-10T13:08:00;97459.94;;;17.79;100.00
61039;BME280;46919;45.816;3.104;2023-06-10T13:10:25;97455.25;;;17.89;100.00